Time,TemperatureF,DewpointF,PressureIn,WindDirection,WindDirectionDegrees,WindSpeedMPH,WindSpeedGustMPH,Humidity,HourlyPrecipIn,Conditions,Clouds,dailyrainin,SolarRadiationWatts/m^2,SoftwareType,DateUTC
2013-01-13 00:00:00,51.1,50.8,29.83,SE,145,0.0,0.0,99,0.00,OVC,,0.00,0.0,WeatherDisplay:10.37,2013-01-13 05:00:00,
2013-01-13 00:01:00,51.1,50.8,29.82,SE,145,0.0,0.0,99,0.00,OVC,,0.00,0.0,WeatherDisplay:10.37,2013-01-13 05:01:00,
2013-01-13 00:06:00,51.3,51.0,29.82,SE,145,0.0,0.0,99,0.00,-RA,,0.00,0.0,WeatherDisplay:10.37,2013-01-13 05:06:00,
2013-01-13 00:11:00,51.4,51.1,29.82,SE,145,0.0,0.0,99,0.00,-RA,,0.00,0.0,WeatherDisplay:10.37,2013-01-13 05:11:00,
2013-01-13 00:16:00,51.4,51.1,29.78,SE,145,0.0,0.0,99,0.00,-RA,,0.00,0.0,WeatherDisplay:10.37,2013-01-13 05:16:00,
2013-01-13 00:21:00,51.4,51.1,29.78,SE,145,0.0,0.0,99,0.00,-RA,,0.00,0.0,WeatherDisplay:10.37,2013-01-13 05:21:00,
2013-01-13 00:26:00,51.4,51.1,29.78,SE,145,0.0,0.0,99,0.00,-RA,,0.00,0.0,WeatherDisplay:10.37,2013-01-13 05:26:00,
2013-01-13 00:31:00,51.4,51.4,29.78,SE,145,0.0,0.0,100,0.00,-RA,,0.00,0.0,WeatherDisplay:10.37,2013-01-13 05:31:00,
2013-01-13 00:36:00,51.6,51.6,29.78,SE,145,0.2,1.1,100,0.00,-RA,,0.00,0.0,WeatherDisplay:10.37,2013-01-13 05:36:00,
2013-01-13 00:41:00,51.7,51.7,29.78,SE,145,0.0,0.0,100,0.00,-RA,,0.00,0.0,WeatherDisplay:10.37,2013-01-13 05:41:00,
2013-01-13 00:46:00,51.7,51.7,29.77,SE,145,1.2,1.5,100,0.00,-RA,,0.00,0.0,WeatherDisplay:10.37,2013-01-13 05:46:00,
2013-01-13 00:51:00,51.9,51.9,29.77,SE,145,0.0,0.0,100,0.00,-RA,,0.00,0.0,WeatherDisplay:10.37,2013-01-13 05:51:00,
2013-01-13 00:56:00,52.0,52.0,29.77,SE,145,0.0,0.0,100,0.00,-RA,,0.00,0.0,WeatherDisplay:10.37,2013-01-13 05:56:00,
2013-01-13 01:01:00,52.2,52.2,29.78,SE,145,0.0,0.0,100,0.00,-RA,,0.00,0.0,WeatherDisplay:10.37,2013-01-13 06:01:00,
2013-01-13 01:06:00,52.3,52.3,29.78,SE,145,0.2,0.0,100,0.00,OVC,,0.00,0.0,WeatherDisplay:10.37,2013-01-13 06:06:00,
2013-01-13 01:11:00,52.5,52.5,29.78,SE,145,0.4,1.1,100,0.00,OVC,,0.00,0.0,WeatherDisplay:10.37,2013-01-13 06:11:00,
2013-01-13 01:16:00,52.6,52.6,29.76,SE,145,0.3,1.1,100,0.00,OVC,,0.00,0.0,WeatherDisplay:10.37,2013-01-13 06:16:00,
2013-01-13 01:21:00,52.6,52.6,29.76,SSE,151,1.3,3.0,100,0.00,OVC,,0.00,0.0,WeatherDisplay:10.37,2013-01-13 06:21:00,
2013-01-13 01:26:00,52.6,52.6,29.76,ENE,71,1.3,3.5,100,0.00,OVC,,0.00,0.0,WeatherDisplay:10.37,2013-01-13 06:26:00,
2013-01-13 01:31:00,52.5,52.5,29.74,NW,309,2.2,3.5,100,0.00,OVC,,0.00,0.0,WeatherDisplay:10.37,2013-01-13 06:31:00,
2013-01-13 01:36:00,52.3,52.3,29.74,NE,42,0.0,3.5,100,0.00,OVC,,0.00,0.0,WeatherDisplay:10.37,2013-01-13 06:36:00,
2013-01-13 01:41:00,52.3,52.3,29.74,NNE,30,1.6,4.6,100,0.00,OVC,,0.00,0.0,WeatherDisplay:10.37,2013-01-13 06:41:00,
2013-01-13 01:46:00,52.0,52.0,29.75,North,8,2.6,4.6,100,0.00,OVC,,0.00,0.0,WeatherDisplay:10.37,2013-01-13 06:46:00,
2013-01-13 01:51:00,51.7,51.7,29.75,NE,47,4.2,9.2,100,0.00,OVC,,0.00,0.0,WeatherDisplay:10.37,2013-01-13 06:51:00,
2013-01-13 01:56:00,50.7,50.4,29.75,NW,323,2.6,3.5,99,0.00,OVC,,0.00,0.0,WeatherDisplay:10.37,2013-01-13 06:56:00,
2013-01-13 02:01:00,49.4,49.1,29.75,NE,41,4.1,9.2,99,0.00,OVC,,0.00,0.0,WeatherDisplay:10.37,2013-01-13 07:01:00,
2013-01-13 02:06:00,47.9,47.4,29.75,NNE,21,4.3,4.6,98,0.00,OVC,,0.00,0.0,WeatherDisplay:10.37,2013-01-13 07:06:00,
2013-01-13 02:11:00,46.5,46.0,29.75,North,356,4.3,4.6,98,0.00,OVC,,0.00,0.0,WeatherDisplay:10.37,2013-01-13 07:11:00,
2013-01-13 02:16:00,46.0,45.2,29.76,North,0,0.2,1.1,97,0.00,OVC,,0.00,0.0,WeatherDisplay:10.37,2013-01-13 07:16:00,
2013-01-13 02:21:00,45.5,44.7,29.76,North,0,0.0,0.0,97,0.00,OVC,,0.00,0.0,WeatherDisplay:10.37,2013-01-13 07:21:00,
2013-01-13 02:26:00,45.2,44.4,29.76,ENE,58,4.5,8.1,97,0.00,OVC,,0.00,0.0,WeatherDisplay:10.37,2013-01-13 07:26:00,
2013-01-13 02:31:00,45.1,44.3,29.75,NE,42,1.8,1.8,97,0.00,OVC,,0.00,0.0,WeatherDisplay:10.37,2013-01-13 07:31:00,
2013-01-13 02:36:00,44.8,44.0,29.75,NW,315,2.4,4.6,97,0.00,OVC,,0.00,0.0,WeatherDisplay:10.37,2013-01-13 07:36:00,
2013-01-13 02:41:00,44.6,43.8,29.75,NW,315,3.2,3.5,97,0.00,OVC,,0.00,0.0,WeatherDisplay:10.37,2013-01-13 07:41:00,
2013-01-13 02:46:00,44.5,43.4,29.77,NW,319,2.2,4.6,96,0.00,OVC,,0.00,0.0,WeatherDisplay:10.37,2013-01-13 07:46:00,
2013-01-13 02:51:00,44.3,43.2,29.77,NW,319,0.5,1.5,96,0.00,OVC,,0.00,0.0,WeatherDisplay:10.37,2013-01-13 07:51:00,
2013-01-13 02:56:00,44.2,43.1,29.77,NW,319,1.4,3.5,96,0.00,OVC,,0.00,0.0,WeatherDisplay:10.37,2013-01-13 07:56:00,
2013-01-13 03:01:00,44.1,43.3,29.77,NW,318,2.8,4.6,97,0.00,OVC,,0.00,0.0,WeatherDisplay:10.37,2013-01-13 08:01:00,
2013-01-13 03:06:00,43.9,43.1,29.77,NW,325,1.9,4.5,97,0.00,OVC,,0.00,0.0,WeatherDisplay:10.37,2013-01-13 08:06:00,
2013-01-13 03:11:00,43.8,43.0,29.77,NW,319,6.9,7.5,97,0.00,OVC,,0.00,0.0,WeatherDisplay:10.37,2013-01-13 08:11:00,
2013-01-13 03:16:00,43.8,43.0,29.77,NW,313,2.3,4.6,97,0.00,OVC,,0.00,0.0,WeatherDisplay:10.37,2013-01-13 08:16:00,
2013-01-13 03:21:00,43.6,42.8,29.77,NNW,342,2.6,4.6,97,0.00,OVC,,0.00,0.0,WeatherDisplay:10.37,2013-01-13 08:21:00,
2013-01-13 03:26:00,43.5,42.7,29.77,North,352,2.3,3.5,97,0.00,OVC,,0.00,0.0,WeatherDisplay:10.37,2013-01-13 08:26:00,
2013-01-13 03:31:00,43.3,42.5,29.76,NNE,20,2.5,4.6,97,0.00,OVC,,0.00,0.0,WeatherDisplay:10.37,2013-01-13 08:31:00,
2013-01-13 03:36:00,43.2,42.4,29.76,NW,318,4.0,4.6,97,0.00,OVC,,0.00,0.0,WeatherDisplay:10.37,2013-01-13 08:36:00,
2013-01-13 03:41:00,43.1,42.3,29.76,NW,318,1.2,3.5,97,0.00,OVC,,0.00,0.0,WeatherDisplay:10.37,2013-01-13 08:41:00,
2013-01-13 03:46:00,42.9,42.1,29.74,NNW,339,3.2,4.6,97,0.00,OVC,,0.00,0.0,WeatherDisplay:10.37,2013-01-13 08:46:00,
2013-01-13 03:51:00,42.8,42.0,29.74,NNW,335,1.9,3.5,97,0.00,OVC,,0.00,0.0,WeatherDisplay:10.37,2013-01-13 08:51:00,
2013-01-13 03:56:00,42.6,41.8,29.74,NW,312,2.2,4.6,97,0.00,OVC,,0.00,0.0,WeatherDisplay:10.37,2013-01-13 08:56:00,
2013-01-13 04:01:00,42.5,41.7,29.74,NNW,336,4.4,9.2,97,0.00,OVC,,0.00,0.0,WeatherDisplay:10.37,2013-01-13 09:01:00,
2013-01-13 04:06:00,42.3,41.5,29.74,NW,316,1.0,4.6,97,0.00,-RA,,0.00,0.0,WeatherDisplay:10.37,2013-01-13 09:06:00,
2013-01-13 04:11:00,42.3,41.5,29.74,NW,312,2.4,3.0,97,0.00,-RA,,0.00,0.0,WeatherDisplay:10.37,2013-01-13 09:11:00,
2013-01-13 04:16:00,42.2,41.4,29.76,North,353,2.0,4.5,97,0.00,-RA,,0.00,0.0,WeatherDisplay:10.37,2013-01-13 09:16:00,
2013-01-13 04:21:00,42.2,41.4,29.76,NNW,346,1.1,3.0,97,0.00,-RA,,0.00,0.0,WeatherDisplay:10.37,2013-01-13 09:21:00,
2013-01-13 04:26:00,42.1,41.3,29.76,NNW,328,2.1,4.6,97,0.00,-RA,,0.00,0.0,WeatherDisplay:10.37,2013-01-13 09:26:00,
2013-01-13 04:31:00,41.9,41.1,29.74,NW,305,5.7,8.1,97,0.00,-RA,,0.00,0.0,WeatherDisplay:10.37,2013-01-13 09:31:00,
2013-01-13 04:36:00,41.9,41.1,29.74,NW,305,7.9,11.5,97,0.00,-RA,,0.00,0.0,WeatherDisplay:10.37,2013-01-13 09:36:00,
2013-01-13 04:41:00,41.8,41.0,29.74,NNW,337,5.7,8.1,97,0.00,-RA,,0.00,0.0,WeatherDisplay:10.37,2013-01-13 09:41:00,
2013-01-13 04:46:00,41.8,41.0,29.77,NW,309,6.2,6.2,97,0.00,-RA,,0.00,0.0,WeatherDisplay:10.37,2013-01-13 09:46:00,
2013-01-13 04:51:00,41.6,40.8,29.77,NW,313,2.5,4.6,97,0.00,-RA,,0.00,0.0,WeatherDisplay:10.37,2013-01-13 09:51:00,
2013-01-13 04:56:00,41.3,40.5,29.77,NNW,328,3.1,8.1,97,0.00,-RA,,0.00,0.0,WeatherDisplay:10.37,2013-01-13 09:56:00,
2013-01-13 05:01:00,41.2,40.4,29.75,WNW,298,2.7,5.8,97,0.00,-RA,,0.00,0.0,WeatherDisplay:10.37,2013-01-13 10:01:00,
2013-01-13 05:06:00,41.1,40.6,29.75,NE,49,4.9,4.9,98,0.00,OVC,,0.00,0.0,WeatherDisplay:10.37,2013-01-13 10:06:00,
2013-01-13 05:11:00,40.8,40.3,29.75,NW,316,3.1,3.5,98,0.00,OVC,,0.00,0.0,WeatherDisplay:10.37,2013-01-13 10:11:00,
2013-01-13 05:16:00,40.8,40.3,29.72,WNW,288,0.4,1.1,98,0.00,OVC,,0.00,0.0,WeatherDisplay:10.37,2013-01-13 10:16:00,
2013-01-13 05:21:00,40.8,40.3,29.72,NNW,328,5.2,9.2,98,0.00,OVC,,0.00,0.0,WeatherDisplay:10.37,2013-01-13 10:21:00,
2013-01-13 05:26:00,40.8,40.3,29.72,NNW,344,0.7,4.6,98,0.00,OVC,,0.00,0.0,WeatherDisplay:10.37,2013-01-13 10:26:00,
2013-01-13 05:31:00,40.8,40.3,29.72,North,359,4.6,4.6,98,0.00,OVC,,0.00,0.0,WeatherDisplay:10.37,2013-01-13 10:31:00,
2013-01-13 05:36:00,40.6,39.8,29.72,North,1,2.8,3.0,97,0.00,OVC,,0.00,0.0,WeatherDisplay:10.37,2013-01-13 10:36:00,
2013-01-13 05:41:00,40.6,39.8,29.72,NNE,25,1.8,3.5,97,0.00,OVC,,0.00,0.0,WeatherDisplay:10.37,2013-01-13 10:41:00,
2013-01-13 05:46:00,40.6,39.8,29.70,NNE,25,0.3,1.1,97,0.00,OVC,,0.00,0.0,WeatherDisplay:10.37,2013-01-13 10:46:00,
2013-01-13 05:51:00,40.5,39.7,29.70,NNW,344,1.0,3.0,97,0.00,OVC,,0.00,0.0,WeatherDisplay:10.37,2013-01-13 10:51:00,
2013-01-13 05:56:00,40.5,39.7,29.70,NNW,344,0.4,1.5,97,0.00,OVC,,0.00,0.0,WeatherDisplay:10.37,2013-01-13 10:56:00,
2013-01-13 06:01:00,40.5,40.0,29.76,NNW,344,1.5,3.5,98,0.00,OVC,,0.00,0.0,WeatherDisplay:10.37,2013-01-13 11:01:00,
2013-01-13 06:06:00,40.5,39.7,29.76,NW,313,0.0,9.2,97,0.00,OVC,,0.00,0.0,WeatherDisplay:10.37,2013-01-13 11:06:00,
2013-01-13 06:11:00,40.5,39.7,29.76,WNW,302,1.0,3.5,97,0.00,OVC,,0.00,0.0,WeatherDisplay:10.37,2013-01-13 11:11:00,
2013-01-13 06:16:00,40.6,40.1,29.77,SW,236,2.8,4.6,98,0.00,OVC,,0.00,0.0,WeatherDisplay:10.37,2013-01-13 11:16:00,
2013-01-13 06:21:00,40.6,40.1,29.77,SW,236,3.1,7.5,98,0.00,OVC,,0.00,0.0,WeatherDisplay:10.37,2013-01-13 11:21:00,
2013-01-13 06:26:00,40.8,40.3,29.77,West,265,1.6,4.6,98,0.00,OVC,,0.00,0.0,WeatherDisplay:10.37,2013-01-13 11:26:00,
2013-01-13 06:31:00,40.8,40.3,29.77,NW,326,0.9,1.5,98,0.00,OVC,,0.00,0.0,WeatherDisplay:10.37,2013-01-13 11:31:00,
2013-01-13 06:36:00,40.9,40.4,29.77,WNW,288,2.3,8.1,98,0.00,OVC,,0.00,0.0,WeatherDisplay:10.37,2013-01-13 11:36:00,
2013-01-13 06:41:00,40.9,40.4,29.77,WNW,291,3.0,3.0,98,0.00,OVC,,0.00,0.0,WeatherDisplay:10.37,2013-01-13 11:41:00,
2013-01-13 06:46:00,40.9,40.1,29.78,NW,308,5.3,8.1,97,0.00,OVC,,0.00,0.0,WeatherDisplay:10.37,2013-01-13 11:46:00,
2013-01-13 06:51:00,40.8,40.0,29.78,WSW,256,3.6,3.6,97,0.00,OVC,,0.00,0.0,WeatherDisplay:10.37,2013-01-13 11:51:00,
2013-01-13 06:56:00,40.8,40.0,29.78,WSW,257,3.3,3.5,97,0.00,OVC,,0.00,0.0,WeatherDisplay:10.37,2013-01-13 11:56:00,
2013-01-13 07:01:00,40.6,39.8,29.81,WSW,258,2.2,3.5,97,0.00,OVC,,0.00,0.0,WeatherDisplay:10.37,2013-01-13 12:01:00,
2013-01-13 07:06:00,40.6,39.8,29.81,NW,311,1.6,3.5,97,0.00,OVC,,0.00,0.0,WeatherDisplay:10.37,2013-01-13 12:06:00,
2013-01-13 07:11:00,40.5,39.7,29.81,NW,309,0.4,3.5,97,0.00,OVC,,0.00,0.0,WeatherDisplay:10.37,2013-01-13 12:11:00,
2013-01-13 07:16:00,40.5,39.7,29.80,NW,308,0.4,1.1,97,0.00,OVC,,0.00,0.0,WeatherDisplay:10.37,2013-01-13 12:16:00,
2013-01-13 07:21:00,40.3,39.5,29.80,NW,308,0.0,0.0,97,0.00,OVC,,0.00,0.0,WeatherDisplay:10.37,2013-01-13 12:21:00,
2013-01-13 07:26:00,40.3,39.5,29.80,NW,309,0.5,1.1,97,0.00,OVC,,0.00,0.0,WeatherDisplay:10.37,2013-01-13 12:26:00,
2013-01-13 07:31:00,40.2,39.4,29.79,NW,309,1.3,4.5,97,0.00,OVC,,0.00,0.0,WeatherDisplay:10.37,2013-01-13 12:31:00,
2013-01-13 07:36:00,40.2,39.4,29.79,NW,309,1.3,1.5,97,0.00,OVC,,0.00,0.0,WeatherDisplay:10.37,2013-01-13 12:36:00,
2013-01-13 07:41:00,40.2,39.4,29.79,NW,309,1.2,1.5,97,0.00,OVC,,0.00,0.0,WeatherDisplay:10.37,2013-01-13 12:41:00,
2013-01-13 07:46:00,40.2,39.4,29.82,NW,309,1.5,3.0,97,0.00,OVC,,0.00,0.0,WeatherDisplay:10.37,2013-01-13 12:46:00,
2013-01-13 07:51:00,40.2,39.4,29.82,NW,309,0.8,1.5,97,0.00,OVC,,0.00,0.0,WeatherDisplay:10.37,2013-01-13 12:51:00,
2013-01-13 07:56:00,40.2,39.4,29.82,NW,309,0.0,0.0,97,0.00,OVC,,0.00,0.0,WeatherDisplay:10.37,2013-01-13 12:56:00,
2013-01-13 08:01:00,40.2,39.4,29.81,NW,309,0.0,0.0,97,0.00,OVC,,0.00,0.0,WeatherDisplay:10.37,2013-01-13 13:01:00,
2013-01-13 08:06:00,40.2,39.4,29.81,NW,309,1.1,3.0,97,0.00,OVC,,0.00,0.0,WeatherDisplay:10.37,2013-01-13 13:06:00,
2013-01-13 08:11:00,40.2,39.4,29.81,NW,309,4.2,4.2,97,0.00,OVC,,0.00,5.0,WeatherDisplay:10.37,2013-01-13 13:11:00,
2013-01-13 08:16:00,40.2,39.4,29.83,NW,309,1.8,3.5,97,0.00,OVC,,0.00,7.0,WeatherDisplay:10.37,2013-01-13 13:16:00,
2013-01-13 08:21:00,40.2,39.4,29.83,NW,309,0.8,3.0,97,0.00,OVC,,0.00,9.0,WeatherDisplay:10.37,2013-01-13 13:21:00,
2013-01-13 08:26:00,40.3,39.5,29.83,NW,309,2.0,2.0,97,0.00,OVC,,0.00,11.0,WeatherDisplay:10.37,2013-01-13 13:26:00,
2013-01-13 08:31:00,40.3,39.5,29.83,NW,309,0.0,1.1,97,0.00,OVC,,0.00,12.0,WeatherDisplay:10.37,2013-01-13 13:31:00,
2013-01-13 08:36:00,40.3,39.5,29.83,NW,309,0.0,0.0,97,0.00,OVC,,0.00,18.0,WeatherDisplay:10.37,2013-01-13 13:36:00,
2013-01-13 08:41:00,40.3,39.5,29.83,NW,309,1.3,1.5,97,0.00,OVC,,0.00,19.0,WeatherDisplay:10.37,2013-01-13 13:41:00,
2013-01-13 08:46:00,40.5,39.7,29.84,NW,309,0.0,0.0,97,0.00,OVC,,0.00,19.0,WeatherDisplay:10.37,2013-01-13 13:46:00,
2013-01-13 08:51:00,40.5,39.7,29.84,NW,309,0.4,0.0,97,0.00,OVC,,0.00,26.0,WeatherDisplay:10.37,2013-01-13 13:51:00,
2013-01-13 08:56:00,40.5,39.7,29.84,NW,309,0.5,1.1,97,0.00,OVC,,0.00,32.0,WeatherDisplay:10.37,2013-01-13 13:56:00,
2013-01-13 09:01:00,40.6,39.8,29.84,NW,309,0.2,1.5,97,0.00,OVC,,0.00,33.0,WeatherDisplay:10.37,2013-01-13 14:01:00,
2013-01-13 09:06:00,40.6,39.8,29.84,NW,309,1.1,1.5,97,0.00,OVC,,0.00,30.0,WeatherDisplay:10.37,2013-01-13 14:06:00,
2013-01-13 09:11:00,40.6,39.5,29.84,NW,309,0.5,1.1,96,0.00,OVC,,0.00,26.0,WeatherDisplay:10.37,2013-01-13 14:11:00,
2013-01-13 09:16:00,40.6,39.5,29.85,NW,309,2.8,3.5,96,0.00,OVC,,0.00,21.0,WeatherDisplay:10.37,2013-01-13 14:16:00,
2013-01-13 09:21:00,40.6,39.5,29.85,NW,309,3.2,3.5,96,0.00,OVC,,0.00,30.0,WeatherDisplay:10.37,2013-01-13 14:21:00,
2013-01-13 09:26:00,40.6,39.5,29.85,NW,309,2.1,3.5,96,0.00,OVC,,0.00,32.0,WeatherDisplay:10.37,2013-01-13 14:26:00,
2013-01-13 09:31:00,40.6,39.5,29.84,NW,309,1.1,3.5,96,0.00,OVC,,0.00,35.0,WeatherDisplay:10.37,2013-01-13 14:31:00,
2013-01-13 09:36:00,40.6,39.5,29.84,NW,309,0.0,0.0,96,0.00,OVC,,0.00,39.0,WeatherDisplay:10.37,2013-01-13 14:36:00,
2013-01-13 09:41:00,40.5,39.4,29.84,NW,309,0.0,0.0,96,0.00,OVC,,0.00,32.0,WeatherDisplay:10.37,2013-01-13 14:41:00,
2013-01-13 09:46:00,40.5,39.4,29.84,NW,309,0.0,0.0,96,0.00,OVC,,0.00,28.0,WeatherDisplay:10.37,2013-01-13 14:46:00,
2013-01-13 09:51:00,40.6,39.5,29.84,NW,309,0.0,0.0,96,0.00,OVC,,0.00,37.0,WeatherDisplay:10.37,2013-01-13 14:51:00,
2013-01-13 09:56:00,40.6,39.5,29.84,NW,309,1.6,1.6,96,0.00,OVC,,0.00,35.0,WeatherDisplay:10.37,2013-01-13 14:56:00,
2013-01-13 10:01:00,40.8,39.7,29.86,NW,309,0.1,4.6,96,0.00,OVC,,0.00,39.0,WeatherDisplay:10.37,2013-01-13 15:01:00,
2013-01-13 10:06:00,40.8,39.7,29.86,NW,309,2.0,3.0,96,0.00,OVC,,0.00,42.0,WeatherDisplay:10.37,2013-01-13 15:06:00,
2013-01-13 10:11:00,40.8,39.5,29.86,NW,308,0.0,3.5,95,0.00,OVC,,0.00,33.0,WeatherDisplay:10.37,2013-01-13 15:11:00,
2013-01-13 10:16:00,40.9,39.6,29.85,NW,308,0.0,1.1,95,0.00,OVC,,0.00,39.0,WeatherDisplay:10.37,2013-01-13 15:16:00,
2013-01-13 10:21:00,40.9,39.6,29.85,NW,308,0.0,3.5,95,0.00,OVC,,0.00,55.0,WeatherDisplay:10.37,2013-01-13 15:21:00,
2013-01-13 10:26:00,40.9,39.6,29.85,NW,308,3.9,4.6,95,0.00,OVC,,0.00,32.0,WeatherDisplay:10.37,2013-01-13 15:26:00,
2013-01-13 10:31:00,40.9,39.6,29.86,NW,308,0.9,3.0,95,0.00,OVC,,0.00,39.0,WeatherDisplay:10.37,2013-01-13 15:31:00,
2013-01-13 10:36:00,40.9,39.3,29.86,NW,308,0.0,0.0,94,0.00,OVC,,0.00,56.0,WeatherDisplay:10.37,2013-01-13 15:36:00,
2013-01-13 10:41:00,40.9,39.3,29.86,NW,308,2.1,3.5,94,0.00,OVC,,0.00,56.0,WeatherDisplay:10.37,2013-01-13 15:41:00,
2013-01-13 10:46:00,40.9,39.3,29.86,NW,308,2.9,3.5,94,0.00,OVC,,0.00,67.0,WeatherDisplay:10.37,2013-01-13 15:46:00,
2013-01-13 10:51:00,41.1,39.5,29.86,NW,308,2.2,3.5,94,0.00,OVC,,0.00,69.0,WeatherDisplay:10.37,2013-01-13 15:51:00,
2013-01-13 10:56:00,41.1,39.2,29.86,NW,308,2.1,3.5,93,0.00,OVC,,0.00,62.0,WeatherDisplay:10.37,2013-01-13 15:56:00,
2013-01-13 11:01:00,41.1,39.2,29.87,NW,308,4.2,4.6,93,0.00,OVC,,0.00,58.0,WeatherDisplay:10.37,2013-01-13 16:01:00,
2013-01-13 11:06:00,41.1,39.2,29.87,NW,306,0.8,3.0,93,0.00,OVC,,0.00,60.0,WeatherDisplay:10.37,2013-01-13 16:06:00,
2013-01-13 11:11:00,41.1,39.0,29.87,NW,306,2.7,3.5,92,0.00,OVC,,0.00,74.0,WeatherDisplay:10.37,2013-01-13 16:11:00,
2013-01-13 11:16:00,41.1,39.0,29.87,NW,305,6.1,6.1,92,0.00,OVC,,0.00,77.0,WeatherDisplay:10.37,2013-01-13 16:16:00,
2013-01-13 11:21:00,41.1,39.0,29.87,NW,306,3.5,4.6,92,0.00,OVC,,0.00,67.0,WeatherDisplay:10.37,2013-01-13 16:21:00,
2013-01-13 11:26:00,41.1,39.0,29.87,NW,306,3.5,3.5,92,0.00,OVC,,0.00,65.0,WeatherDisplay:10.37,2013-01-13 16:26:00,
2013-01-13 11:31:00,41.1,38.7,29.86,NW,304,5.8,8.1,91,0.00,OVC,,0.00,63.0,WeatherDisplay:10.37,2013-01-13 16:31:00,
2013-01-13 11:36:00,41.1,38.7,29.86,NW,304,1.6,4.6,91,0.00,OVC,,0.00,77.0,WeatherDisplay:10.37,2013-01-13 16:36:00,
2013-01-13 11:41:00,41.1,38.7,29.86,NW,305,4.3,4.6,91,0.00,OVC,,0.00,63.0,WeatherDisplay:10.37,2013-01-13 16:41:00,
2013-01-13 11:46:00,41.1,38.7,29.86,NW,305,3.4,4.6,91,0.00,OVC,,0.00,49.0,WeatherDisplay:10.37,2013-01-13 16:46:00,
2013-01-13 11:51:00,41.1,38.7,29.86,WNW,294,5.5,5.8,91,0.00,OVC,,0.00,69.0,WeatherDisplay:10.37,2013-01-13 16:51:00,
2013-01-13 11:56:00,41.1,38.7,29.86,WNW,292,3.1,5.8,91,0.00,OVC,,0.00,79.0,WeatherDisplay:10.37,2013-01-13 16:56:00,
2013-01-13 12:01:00,41.2,38.8,29.87,WNW,292,3.3,4.6,91,0.00,OVC,,0.00,74.0,WeatherDisplay:10.37,2013-01-13 17:01:00,
2013-01-13 12:06:00,41.2,38.8,29.87,WSW,244,3.9,8.1,91,0.00,OVC,,0.00,70.0,WeatherDisplay:10.37,2013-01-13 17:06:00,
2013-01-13 12:11:00,41.2,38.8,29.87,NW,311,4.5,4.6,91,0.00,OVC,,0.00,81.0,WeatherDisplay:10.37,2013-01-13 17:11:00,
2013-01-13 12:16:00,41.3,38.9,29.86,NW,311,3.3,3.5,91,0.00,OVC,,0.00,93.0,WeatherDisplay:10.37,2013-01-13 17:16:00,
2013-01-13 12:21:00,41.2,38.8,29.86,WNW,289,5.2,8.1,91,0.00,OVC,,0.00,86.0,WeatherDisplay:10.37,2013-01-13 17:21:00,
2013-01-13 12:26:00,41.2,38.8,29.86,WNW,298,3.1,4.6,91,0.00,OVC,,0.00,77.0,WeatherDisplay:10.37,2013-01-13 17:26:00,
2013-01-13 12:31:00,41.2,38.8,29.86,WSW,248,4.1,4.6,91,0.00,OVC,,0.00,70.0,WeatherDisplay:10.37,2013-01-13 17:31:00,
2013-01-13 12:36:00,41.2,38.8,29.86,WSW,248,0.2,3.5,91,0.00,OVC,,0.00,102.0,WeatherDisplay:10.37,2013-01-13 17:36:00,
2013-01-13 12:41:00,41.2,38.8,29.86,WSW,248,0.2,1.1,91,0.00,OVC,,0.00,118.0,WeatherDisplay:10.37,2013-01-13 17:41:00,
2013-01-13 12:46:00,41.3,39.2,29.85,WSW,258,5.4,8.1,92,0.00,OVC,,0.00,44.0,WeatherDisplay:10.37,2013-01-13 17:46:00,
2013-01-13 12:51:00,41.2,38.8,29.85,WSW,258,4.7,6.0,91,0.00,OVC,,0.00,39.0,WeatherDisplay:10.37,2013-01-13 17:51:00,
2013-01-13 12:56:00,41.1,38.7,29.85,WNW,285,3.0,4.6,91,0.00,OVC,,0.00,49.0,WeatherDisplay:10.37,2013-01-13 17:56:00,
2013-01-13 13:01:00,41.1,39.0,29.85,West,281,3.0,9.2,92,0.00,-DZ,,0.00,65.0,WeatherDisplay:10.37,2013-01-13 18:01:00,
2013-01-13 13:06:00,41.1,39.0,29.85,WNW,285,3.0,5.8,92,0.00,-DZ,,0.00,70.0,WeatherDisplay:10.37,2013-01-13 18:06:00,
2013-01-13 13:11:00,40.9,38.8,29.85,WNW,282,4.4,4.6,92,0.00,-DZ,,0.00,65.0,WeatherDisplay:10.37,2013-01-13 18:11:00,
2013-01-13 13:16:00,40.8,38.7,29.84,WNW,294,6.6,6.6,92,0.00,-DZ,,0.00,62.0,WeatherDisplay:10.37,2013-01-13 18:16:00,
2013-01-13 13:21:00,40.8,38.7,29.84,WNW,295,3.6,4.6,92,0.00,-DZ,,0.00,40.0,WeatherDisplay:10.37,2013-01-13 18:21:00,
2013-01-13 13:27:00,40.8,38.9,29.84,WNW,288,7.5,8.1,93,0.00,-DZ,,0.00,37.0,WeatherDisplay:10.37,2013-01-13 18:27:00,
2013-01-13 13:32:00,40.8,38.9,29.86,WNW,282,5.0,8.1,93,0.00,-DZ,,0.00,28.0,WeatherDisplay:10.37,2013-01-13 18:32:00,
2013-01-13 13:37:00,40.8,38.9,29.86,WNW,284,6.1,8.1,93,0.00,-DZ,,0.00,37.0,WeatherDisplay:10.37,2013-01-13 18:37:00,
2013-01-13 13:42:00,40.6,38.7,29.86,West,281,9.2,9.2,93,0.00,-DZ,,0.00,37.0,WeatherDisplay:10.37,2013-01-13 18:42:00,
2013-01-13 13:47:00,40.6,38.7,29.86,WNW,288,3.0,8.1,93,0.00,-DZ,,0.00,46.0,WeatherDisplay:10.37,2013-01-13 18:47:00,
2013-01-13 13:52:00,40.6,39.0,29.86,West,274,3.9,8.1,94,0.00,-DZ,,0.00,48.0,WeatherDisplay:10.37,2013-01-13 18:52:00,
2013-01-13 13:57:00,40.6,39.0,29.86,West,278,0.7,3.5,94,0.00,-DZ,,0.00,48.0,WeatherDisplay:10.37,2013-01-13 18:57:00,
2013-01-13 14:02:00,40.8,39.2,29.86,West,278,1.7,4.6,94,0.00,-DZ,,0.00,37.0,WeatherDisplay:10.37,2013-01-13 19:02:00,
2013-01-13 14:07:00,40.8,39.2,29.86,West,278,1.8,4.6,94,0.00,-DZ,,0.00,33.0,WeatherDisplay:10.37,2013-01-13 19:07:00,
2013-01-13 14:12:00,40.8,39.5,29.86,WNW,288,4.1,4.6,95,0.00,-DZ,,0.00,33.0,WeatherDisplay:10.37,2013-01-13 19:12:00,
2013-01-13 14:17:00,40.8,39.5,29.85,WNW,289,2.2,3.5,95,0.00,-DZ,,0.00,48.0,WeatherDisplay:10.37,2013-01-13 19:17:00,
2013-01-13 14:22:00,40.6,39.3,29.85,West,277,2.2,3.5,95,0.00,-DZ,,0.00,44.0,WeatherDisplay:10.37,2013-01-13 19:22:00,
2013-01-13 14:27:00,40.6,39.3,29.85,West,278,4.6,4.6,95,0.00,-DZ,,0.00,46.0,WeatherDisplay:10.37,2013-01-13 19:27:00,
2013-01-13 14:32:00,40.6,39.3,29.84,WNW,289,1.5,3.5,95,0.00,-DZ,,0.00,48.0,WeatherDisplay:10.37,2013-01-13 19:32:00,
2013-01-13 14:37:00,40.6,39.3,29.84,WNW,291,1.5,1.5,95,0.00,-DZ,,0.00,60.0,WeatherDisplay:10.37,2013-01-13 19:37:00,
2013-01-13 14:42:00,40.6,39.3,29.84,WNW,291,1.9,3.5,95,0.00,-DZ,,0.00,67.0,WeatherDisplay:10.37,2013-01-13 19:42:00,
2013-01-13 14:47:00,40.8,39.2,29.83,NNW,343,1.5,3.5,94,0.00,-DZ,,0.00,44.0,WeatherDisplay:10.37,2013-01-13 19:47:00,
2013-01-13 14:52:00,40.8,39.2,29.83,NNW,340,1.6,1.6,94,0.00,-DZ,,0.00,37.0,WeatherDisplay:10.37,2013-01-13 19:52:00,
2013-01-13 14:57:00,40.8,39.2,29.83,NNW,340,0.0,0.0,94,0.00,-DZ,,0.00,37.0,WeatherDisplay:10.37,2013-01-13 19:57:00,
2013-01-13 15:02:00,40.8,39.2,29.83,NNW,340,0.5,3.5,94,0.00,OVC,,0.00,35.0,WeatherDisplay:10.37,2013-01-13 20:02:00,
2013-01-13 15:07:00,40.8,39.2,29.83,NNW,340,1.0,3.5,94,0.00,OVC,,0.00,21.0,WeatherDisplay:10.37,2013-01-13 20:07:00,
2013-01-13 15:12:00,40.8,38.9,29.83,NNW,340,2.5,3.5,93,0.00,OVC,,0.00,28.0,WeatherDisplay:10.37,2013-01-13 20:12:00,
2013-01-13 15:17:00,40.8,39.2,29.86,NNW,340,1.2,3.5,94,0.00,OVC,,0.00,32.0,WeatherDisplay:10.37,2013-01-13 20:17:00,
2013-01-13 15:22:00,40.8,38.9,29.86,NNW,340,2.7,3.5,93,0.00,OVC,,0.00,23.0,WeatherDisplay:10.37,2013-01-13 20:22:00,
2013-01-13 15:27:00,40.8,38.9,29.86,NNW,328,2.9,4.6,93,0.00,OVC,,0.00,18.0,WeatherDisplay:10.37,2013-01-13 20:27:00,
2013-01-13 15:32:00,40.8,38.9,29.88,NW,319,0.6,3.5,93,0.00,OVC,,0.00,16.0,WeatherDisplay:10.37,2013-01-13 20:32:00,
2013-01-13 15:37:00,40.8,38.9,29.88,West,272,2.8,8.1,93,0.00,OVC,,0.00,14.0,WeatherDisplay:10.37,2013-01-13 20:37:00,
2013-01-13 15:42:00,40.8,38.7,29.88,West,275,0.4,4.6,92,0.00,OVC,,0.00,12.0,WeatherDisplay:10.37,2013-01-13 20:42:00,
2013-01-13 15:47:00,40.6,38.5,29.88,West,275,4.2,4.6,92,0.00,OVC,,0.00,12.0,WeatherDisplay:10.37,2013-01-13 20:47:00,
2013-01-13 15:52:00,40.6,38.5,29.88,West,275,2.2,3.5,92,0.00,OVC,,0.00,16.0,WeatherDisplay:10.37,2013-01-13 20:52:00,
2013-01-13 15:57:00,40.6,38.5,29.88,West,281,2.4,3.5,92,0.00,OVC,,0.00,11.0,WeatherDisplay:10.37,2013-01-13 20:57:00,
2013-01-13 16:02:00,40.6,38.5,29.89,NW,306,1.4,4.6,92,0.00,OVC,,0.00,16.0,WeatherDisplay:10.37,2013-01-13 21:02:00,
2013-01-13 16:07:00,40.5,38.6,29.89,NW,306,1.2,1.2,93,0.00,OVC,,0.00,12.0,WeatherDisplay:10.37,2013-01-13 21:07:00,
2013-01-13 16:12:00,40.3,38.4,29.89,West,280,4.1,5.8,93,0.00,OVC,,0.00,11.0,WeatherDisplay:10.37,2013-01-13 21:12:00,
2013-01-13 16:17:00,40.2,38.6,29.91,WNW,289,2.6,8.1,94,0.00,OVC,,0.00,11.0,WeatherDisplay:10.37,2013-01-13 21:17:00,
2013-01-13 16:22:00,40.1,38.8,29.91,NW,304,4.4,4.6,95,0.00,OVC,,0.00,11.0,WeatherDisplay:10.37,2013-01-13 21:22:00,
2013-01-13 16:27:00,40.1,38.8,29.91,West,263,1.3,3.5,95,0.00,OVC,,0.00,11.0,WeatherDisplay:10.37,2013-01-13 21:27:00,
2013-01-13 16:32:00,39.9,38.9,29.92,NNW,337,2.7,4.6,96,0.00,OVC,,0.00,11.0,WeatherDisplay:10.37,2013-01-13 21:32:00,
2013-01-13 16:37:00,39.9,38.9,29.92,NW,308,7.8,10.4,96,0.00,OVC,,0.00,11.0,WeatherDisplay:10.37,2013-01-13 21:37:00,
2013-01-13 16:42:00,39.6,38.6,29.92,WNW,296,5.1,11.5,96,0.00,OVC,,0.00,7.0,WeatherDisplay:10.37,2013-01-13 21:42:00,
2013-01-13 16:47:00,39.5,38.5,29.91,NW,311,3.7,4.5,96,0.00,OVC,,0.00,7.0,WeatherDisplay:10.37,2013-01-13 21:47:00,
2013-01-13 16:52:00,39.5,38.7,29.91,NW,312,5.1,8.1,97,0.00,OVC,,0.00,5.0,WeatherDisplay:10.37,2013-01-13 21:52:00,
2013-01-13 16:57:00,39.3,38.5,29.91,WNW,288,3.1,4.6,97,0.00,OVC,,0.00,0.0,WeatherDisplay:10.37,2013-01-13 21:57:00,
2013-01-13 17:02:00,39.3,38.5,29.92,WNW,289,2.6,4.6,97,0.00,-RA,,0.00,5.0,WeatherDisplay:10.37,2013-01-13 22:02:00,
2013-01-13 17:07:00,39.2,38.4,29.92,WNW,287,0.0,0.0,97,0.00,-RA,,0.00,5.0,WeatherDisplay:10.37,2013-01-13 22:07:00,
2013-01-13 17:12:00,39.2,37.3,29.92,WNW,296,1.2,4.5,93,0.00,-RA,,0.00,0.0,WeatherDisplay:10.37,2013-01-13 22:12:00,
2013-01-13 17:17:00,39.2,37.3,29.92,WNW,296,0.0,1.1,93,0.00,-RA,,0.00,0.0,WeatherDisplay:10.37,2013-01-13 22:17:00,
2013-01-13 17:22:00,39.2,37.3,29.92,West,275,3.8,3.8,93,0.00,-RA,,0.00,0.0,WeatherDisplay:10.37,2013-01-13 22:22:00,
2013-01-13 17:27:00,39.2,37.3,29.92,West,275,1.4,1.5,93,0.00,-RA,,0.00,0.0,WeatherDisplay:10.37,2013-01-13 22:27:00,
2013-01-13 17:32:00,39.1,37.5,29.92,West,275,3.6,4.6,94,0.00,-RA,,0.00,0.0,WeatherDisplay:10.37,2013-01-13 22:32:00,
2013-01-13 17:37:00,39.1,37.5,29.92,West,275,2.3,3.0,94,0.00,-RA,,0.00,0.0,WeatherDisplay:10.37,2013-01-13 22:37:00,
2013-01-13 17:42:00,38.9,37.3,29.92,West,275,0.3,1.5,94,0.00,-RA,,0.00,0.0,WeatherDisplay:10.37,2013-01-13 22:42:00,
2013-01-13 17:47:00,38.8,37.2,29.92,West,275,2.2,3.5,94,0.00,-RA,,0.00,0.0,WeatherDisplay:10.37,2013-01-13 22:47:00,
2013-01-13 17:52:00,38.8,37.2,29.92,West,275,0.0,0.0,94,0.00,-RA,,0.00,0.0,WeatherDisplay:10.37,2013-01-13 22:52:00,
2013-01-13 17:57:00,38.8,37.2,29.92,West,275,0.0,0.0,94,0.00,-RA,,0.00,0.0,WeatherDisplay:10.37,2013-01-13 22:57:00,
2013-01-13 18:02:00,38.8,37.2,29.90,West,275,0.0,0.0,94,0.00,-RA,,0.00,0.0,WeatherDisplay:10.37,2013-01-13 23:02:00,
2013-01-13 18:07:00,38.6,37.0,29.90,West,275,0.2,1.1,94,0.00,-RA,,0.00,0.0,WeatherDisplay:10.37,2013-01-13 23:07:00,
2013-01-13 18:12:00,38.5,36.9,29.90,West,275,2.5,4.6,94,0.00,-RA,,0.00,0.0,WeatherDisplay:10.37,2013-01-13 23:12:00,
2013-01-13 18:17:00,38.5,37.2,29.91,West,275,0.0,0.0,95,0.00,-RA,,0.00,0.0,WeatherDisplay:10.37,2013-01-13 23:17:00,
2013-01-13 18:22:00,38.5,37.2,29.91,West,275,0.0,0.0,95,0.00,-RA,,0.00,0.0,WeatherDisplay:10.37,2013-01-13 23:22:00,
2013-01-13 18:27:00,38.5,37.2,29.91,West,275,2.1,3.5,95,0.00,-RA,,0.00,0.0,WeatherDisplay:10.37,2013-01-13 23:27:00,
2013-01-13 18:32:00,38.3,37.0,29.90,West,275,0.0,0.0,95,0.00,-RA,,0.00,0.0,WeatherDisplay:10.37,2013-01-13 23:32:00,
2013-01-13 18:37:00,38.3,37.0,29.90,West,275,0.0,0.0,95,0.00,-RA,,0.00,0.0,WeatherDisplay:10.37,2013-01-13 23:37:00,
2013-01-13 18:42:00,38.3,37.0,29.90,West,275,0.0,0.0,95,0.00,-RA,,0.00,0.0,WeatherDisplay:10.37,2013-01-13 23:42:00,
2013-01-13 18:47:00,38.5,37.2,29.92,West,275,2.0,3.5,95,0.00,-RA,,0.00,0.0,WeatherDisplay:10.37,2013-01-13 23:47:00,
2013-01-13 18:52:00,38.5,37.2,29.92,West,275,2.0,3.0,95,0.00,-RA,,0.00,0.0,WeatherDisplay:10.37,2013-01-13 23:52:00,
2013-01-13 18:57:00,38.5,37.2,29.92,West,275,0.4,3.5,95,0.00,-RA,,0.00,0.0,WeatherDisplay:10.37,2013-01-13 23:57:00,
2013-01-13 19:02:00,38.3,37.0,29.92,West,275,0.0,0.0,95,0.00,-RA,,0.00,0.0,WeatherDisplay:10.37,2013-01-14 00:02:00,
2013-01-13 19:07:00,38.3,37.0,29.92,West,275,0.0,0.0,95,0.00,-RA,,0.00,0.0,WeatherDisplay:10.37,2013-01-14 00:07:00,
2013-01-13 19:12:00,38.2,37.2,29.92,West,275,0.6,1.5,96,0.00,-RA,,0.00,0.0,WeatherDisplay:10.37,2013-01-14 00:12:00,
2013-01-13 19:17:00,38.0,37.0,29.93,West,275,2.1,3.5,96,0.00,-RA,,0.00,0.0,WeatherDisplay:10.37,2013-01-14 00:17:00,
2013-01-13 19:22:00,38.0,37.0,29.93,West,274,0.3,1.5,96,0.00,-RA,,0.00,0.0,WeatherDisplay:10.37,2013-01-14 00:22:00,
2013-01-13 19:27:00,37.9,36.9,29.93,West,275,0.0,1.1,96,0.00,-RA,,0.00,0.0,WeatherDisplay:10.37,2013-01-14 00:27:00,
2013-01-13 19:32:00,37.9,36.9,29.91,West,275,1.2,1.5,96,0.00,-RA,,0.00,0.0,WeatherDisplay:10.37,2013-01-14 00:32:00,
2013-01-13 19:37:00,37.8,36.8,29.91,West,275,0.1,1.5,96,0.00,-RA,,0.00,0.0,WeatherDisplay:10.37,2013-01-14 00:37:00,
2013-01-13 19:42:00,37.9,36.9,29.91,West,275,1.5,1.5,96,0.00,-RA,,0.00,0.0,WeatherDisplay:10.37,2013-01-14 00:42:00,
2013-01-13 19:47:00,38.0,37.0,29.91,West,274,5.7,5.7,96,0.00,-RA,,0.00,0.0,WeatherDisplay:10.37,2013-01-14 00:47:00,
2013-01-13 19:52:00,38.0,37.0,29.91,West,274,3.1,4.6,96,0.00,-RA,,0.00,0.0,WeatherDisplay:10.37,2013-01-14 00:52:00,
2013-01-13 19:57:00,38.2,37.2,29.91,West,270,6.9,8.1,96,0.00,-RA,,0.00,0.0,WeatherDisplay:10.37,2013-01-14 00:57:00,
2013-01-13 20:02:00,38.2,37.2,29.93,NW,318,7.5,10.5,96,0.00,-RA,,0.00,0.0,WeatherDisplay:10.37,2013-01-14 01:02:00,
2013-01-13 20:07:00,38.2,37.2,29.93,West,271,8.8,10.5,96,0.00,-RA,,0.00,0.0,WeatherDisplay:10.37,2013-01-14 01:07:00,
2013-01-13 20:12:00,38.3,37.3,29.93,West,281,4.1,8.1,96,0.00,-RA,,0.00,0.0,WeatherDisplay:10.37,2013-01-14 01:12:00,
2013-01-13 20:17:00,38.5,37.5,29.93,West,281,7.7,7.7,96,0.00,-RA,,0.00,0.0,WeatherDisplay:10.37,2013-01-14 01:17:00,
2013-01-13 20:22:00,38.5,37.7,29.93,West,277,5.0,7.5,97,0.00,-RA,,0.00,0.0,WeatherDisplay:10.37,2013-01-14 01:22:00,
2013-01-13 20:27:00,38.5,37.7,29.93,West,277,4.8,8.1,97,0.00,-RA,,0.00,0.0,WeatherDisplay:10.37,2013-01-14 01:27:00,
2013-01-13 20:32:00,38.5,37.7,29.93,WNW,284,8.7,9.2,97,0.00,-RA,,0.00,0.0,WeatherDisplay:10.37,2013-01-14 01:32:00,
2013-01-13 20:37:00,38.5,37.7,29.93,WNW,282,4.2,4.6,97,0.00,-RA,,0.00,0.0,WeatherDisplay:10.37,2013-01-14 01:37:00,
2013-01-13 20:42:00,38.5,37.7,29.93,West,277,5.8,9.2,97,0.00,-RA,,0.00,0.0,WeatherDisplay:10.37,2013-01-14 01:42:00,
2013-01-13 20:47:00,38.5,37.7,29.94,West,270,10.2,10.2,97,0.00,-RA,,0.00,0.0,WeatherDisplay:10.37,2013-01-14 01:47:00,
2013-01-13 20:52:00,38.5,37.7,29.94,West,264,5.0,8.1,97,0.00,-RA,,0.00,0.0,WeatherDisplay:10.37,2013-01-14 01:52:00,
2013-01-13 20:57:00,38.5,37.7,29.94,WNW,284,6.8,10.4,97,0.00,-RA,,0.00,0.0,WeatherDisplay:10.37,2013-01-14 01:57:00,
2013-01-13 21:02:00,38.3,37.5,29.94,WNW,296,7.9,8.1,97,0.00,-RA,,0.00,0.0,WeatherDisplay:10.37,2013-01-14 02:02:00,
2013-01-13 21:07:00,38.2,37.4,29.94,WSW,247,11.6,11.6,97,0.00,-RA,,0.00,0.0,WeatherDisplay:10.37,2013-01-14 02:07:00,
2013-01-13 21:12:00,38.2,37.4,29.94,West,281,11.9,11.9,97,0.00,-RA,,0.00,0.0,WeatherDisplay:10.37,2013-01-14 02:12:00,
2013-01-13 21:17:00,38.0,37.2,29.96,West,271,12.3,16.5,97,0.00,-RA,,0.00,0.0,WeatherDisplay:10.37,2013-01-14 02:17:00,
2013-01-13 21:22:00,37.8,36.8,29.96,West,277,9.9,9.9,96,0.00,-RA,,0.00,0.0,WeatherDisplay:10.37,2013-01-14 02:22:00,
2013-01-13 21:27:00,37.5,36.5,29.96,NW,308,9.6,9.6,96,0.00,-RA,,0.00,0.0,WeatherDisplay:10.37,2013-01-14 02:27:00,
2013-01-13 21:32:00,37.0,36.0,29.96,West,274,12.1,12.1,96,0.00,-RA,,0.00,0.0,WeatherDisplay:10.37,2013-01-14 02:32:00,
2013-01-13 21:37:00,36.9,35.9,29.96,West,272,7.1,8.1,96,0.00,-RA,,0.00,0.0,WeatherDisplay:10.37,2013-01-14 02:37:00,
2013-01-13 21:42:00,36.6,35.6,29.96,West,270,11.4,11.4,96,0.00,-RA,,0.00,0.0,WeatherDisplay:10.37,2013-01-14 02:42:00,
2013-01-13 21:47:00,36.3,35.3,29.97,NW,308,7.2,10.4,96,0.00,-RA,,0.00,0.0,WeatherDisplay:10.37,2013-01-14 02:47:00,
2013-01-13 21:52:00,36.2,35.2,29.97,NW,313,6.7,9.2,96,0.00,-RA,,0.00,0.0,WeatherDisplay:10.37,2013-01-14 02:52:00,
2013-01-13 21:57:00,35.9,34.9,29.97,West,268,10.0,10.0,96,0.00,-RA,,0.00,0.0,WeatherDisplay:10.37,2013-01-14 02:57:00,
2013-01-13 22:02:00,35.8,34.8,29.98,WSW,248,9.4,13.8,96,0.00,,,0.00,0.0,WeatherDisplay:10.37,2013-01-14 03:02:00,
2013-01-13 22:07:00,35.5,34.5,29.98,West,272,11.7,11.7,96,0.00,,,0.00,0.0,WeatherDisplay:10.37,2013-01-14 03:07:00,
2013-01-13 22:12:00,35.5,34.5,29.98,WNW,292,9.6,10.5,96,0.00,,,0.00,0.0,WeatherDisplay:10.37,2013-01-14 03:12:00,
2013-01-13 22:17:00,35.3,34.3,29.98,WNW,284,6.0,11.5,96,0.00,,,0.00,0.0,WeatherDisplay:10.37,2013-01-14 03:17:00,
2013-01-13 22:22:00,35.0,34.0,29.98,West,261,6.3,9.2,96,0.00,,,0.00,0.0,WeatherDisplay:10.37,2013-01-14 03:22:00,
2013-01-13 22:27:00,34.9,33.9,29.98,WNW,287,7.7,9.2,96,0.00,,,0.00,0.0,WeatherDisplay:10.37,2013-01-14 03:27:00,
2013-01-13 22:32:00,34.9,33.9,29.98,West,268,3.9,4.6,96,0.00,,,0.00,0.0,WeatherDisplay:10.37,2013-01-14 03:32:00,
2013-01-13 22:37:00,34.7,33.4,29.98,West,271,4.0,4.5,95,0.00,,,0.00,0.0,WeatherDisplay:10.37,2013-01-14 03:37:00,
2013-01-13 22:42:00,34.7,33.4,29.98,West,268,4.8,4.8,95,0.00,,,0.00,0.0,WeatherDisplay:10.37,2013-01-14 03:42:00,
2013-01-13 22:47:00,34.6,33.3,29.98,NW,311,6.5,9.2,95,0.00,,,0.00,0.0,WeatherDisplay:10.37,2013-01-14 03:47:00,
2013-01-13 22:52:00,34.6,33.3,29.98,WNW,289,4.6,8.1,95,0.00,,,0.00,0.0,WeatherDisplay:10.37,2013-01-14 03:52:00,
2013-01-13 22:57:00,34.4,33.1,29.98,WSW,251,9.4,15.0,95,0.00,,,0.00,0.0,WeatherDisplay:10.37,2013-01-14 03:57:00,
2013-01-13 23:02:00,34.3,33.0,30.00,NW,312,8.1,10.5,95,0.00,-SN,,0.00,0.0,WeatherDisplay:10.37,2013-01-14 04:02:00,
2013-01-13 23:07:00,34.1,32.6,30.00,NW,305,6.9,10.4,94,0.00,-SN,,0.00,0.0,WeatherDisplay:10.37,2013-01-14 04:07:00,
2013-01-13 23:12:00,34.1,32.6,30.00,West,268,12.6,12.6,94,0.00,-SN,,0.00,0.0,WeatherDisplay:10.37,2013-01-14 04:12:00,
2013-01-13 23:17:00,34.1,32.6,30.01,West,264,7.8,10.5,94,0.00,-SN,,0.00,0.0,WeatherDisplay:10.37,2013-01-14 04:17:00,
2013-01-13 23:22:00,33.8,32.0,30.01,WNW,287,11.7,11.7,93,0.00,-SN,,0.00,0.0,WeatherDisplay:10.37,2013-01-14 04:22:00,
2013-01-13 23:27:00,33.8,32.0,30.01,NW,308,6.8,9.2,93,0.00,-SN,,0.00,0.0,WeatherDisplay:10.37,2013-01-14 04:27:00,
2013-01-13 23:32:00,33.5,31.7,30.02,West,272,11.1,11.1,93,0.00,-SN,,0.00,0.0,WeatherDisplay:10.37,2013-01-14 04:32:00,
2013-01-13 23:37:00,33.4,31.3,30.02,West,281,10.3,10.5,92,0.00,-SN,,0.00,0.0,WeatherDisplay:10.37,2013-01-14 04:37:00,
2013-01-13 23:42:00,33.2,31.1,30.02,West,270,8.0,10.4,92,0.00,-SN,,0.00,0.0,WeatherDisplay:10.37,2013-01-14 04:42:00,
2013-01-13 23:47:00,33.1,30.8,30.04,WNW,287,9.8,12.0,91,0.00,-SN,,0.00,0.0,WeatherDisplay:10.37,2013-01-14 04:47:00,
2013-01-13 23:52:00,32.9,30.6,30.04,NW,305,9.7,10.5,91,0.00,-SN,,0.00,0.0,WeatherDisplay:10.37,2013-01-14 04:52:00,
2013-01-13 23:57:00,32.8,30.2,30.04,NW,315,10.6,10.6,90,0.00,-SN,,0.00,0.0,WeatherDisplay:10.37,2013-01-14 04:57:00,